Time;durP1;ratioP1;P1;durP2;ratioP2;P2;SDS_P1;SDS_P2;PMS_P1;PMS_P2;Temp;Humidity;BMP_temperature;BMP_pressure;BME280_temperature;BME280_humidity;BME280_pressure;Samples;Min_cycle;Max_cycle;Signal;HPM_P1;HPM_P2
2022/08/06 00:02:12;;;;;;;3.00;2.63;;;;;;;;;;5093418;28;20465;-61
2022/08/06 00:04:39;;;;;;;3.70;2.40;;;;;;;;;;5094331;28;20973;-59
2022/08/06 00:07:06;;;;;;;4.53;2.57;;;;;;;;;;5093612;28;20529;-60
2022/08/06 00:09:34;;;;;;;3.93;2.80;;;;;;;;;;5093392;28;20481;-60
2022/08/06 00:12:02;;;;;;;6.53;2.40;;;;;;;;;;5093055;28;21016;-60
2022/08/06 00:14:29;;;;;;;6.00;3.00;;;;;;;;;;5093684;28;20478;-60
2022/08/06 00:16:58;;;;;;;3.20;2.43;;;;;;;;;;5093619;28;20472;-60
2022/08/06 00:19:26;;;;;;;4.60;2.20;;;;;;;;;;5093383;28;20517;-61
2022/08/06 00:21:54;;;;;;;3.00;2.40;;;;;;;;;;5093255;28;21044;-61
2022/08/06 00:24:22;;;;;;;2.97;2.03;;;;;;;;;;5093420;28;20442;-60
2022/08/06 00:26:49;;;;;;;5.90;3.10;;;;;;;;;;5097572;28;20544;-61
2022/08/06 00:29:16;;;;;;;2.70;1.97;;;;;;;;;;5097538;28;21006;-61
2022/08/06 00:31:44;;;;;;;7.10;2.60;;;;;;;;;;5098422;28;20834;-60
2022/08/06 00:34:13;;;;;;;2.83;1.90;;;;;;;;;;5098063;28;20481;-61
2022/08/06 00:36:40;;;;;;;3.70;2.40;;;;;;;;;;5098587;28;20477;-60
2022/08/06 00:39:08;;;;;;;3.40;2.20;;;;;;;;;;5097947;28;20491;-60
2022/08/06 00:41:36;;;;;;;7.50;2.70;;;;;;;;;;5097176;28;20525;-61
2022/08/06 00:44:03;;;;;;;3.67;2.87;;;;;;;;;;5097297;28;20476;-61
2022/08/06 00:46:31;;;;;;;6.43;2.40;;;;;;;;;;5097290;28;20557;-61
2022/08/06 00:48:58;;;;;;;3.30;1.93;;;;;;;;;;5096896;28;20473;-61
2022/08/06 00:51:27;;;;;;;3.60;1.90;;;;;;;;;;5097139;28;20523;-59
2022/08/06 00:53:55;;;;;;;3.57;2.20;;;;;;;;;;5096717;28;20454;-60
2022/08/06 00:56:22;;;;;;;2.33;1.73;;;;;;;;;;5097012;28;20569;-60
2022/08/06 00:58:49;;;;;;;3.90;2.03;;;;;;;;;;5096824;28;20450;-59
2022/08/06 01:01:17;;;;;;;2.37;2.10;;;;;;;;;;5096905;28;20565;-59
2022/08/06 01:03:45;;;;;;;1.97;1.87;;;;;;;;;;5096423;28;20537;-59
2022/08/06 01:06:12;;;;;;;3.93;1.70;;;;;;;;;;5096334;28;20442;-59
2022/08/06 01:08:41;;;;;;;2.00;1.70;;;;;;;;;;5101361;28;20453;-60
2022/08/06 01:11:08;;;;;;;1.70;1.60;;;;;;;;;;5106681;28;20968;-60
2022/08/06 01:13:36;;;;;;;2.63;1.50;;;;;;;;;;5108301;28;20468;-62
2022/08/06 01:16:16;;;;;;;2.53;1.87;;;;;;;;;;5107870;28;20510;-62
2022/08/06 01:18:48;;;;;;;1.97;1.80;;;;;;;;;;5101322;28;20454;-60
2022/08/06 01:21:24;;;;;;;3.63;2.23;;;;;;;;;;5096775;28;21070;-61
2022/08/06 01:24:06;;;;;;;6.30;2.30;;;;;;;;;;5097142;28;20466;-61
2022/08/06 01:26:39;;;;;;;2.53;1.90;;;;;;;;;;5096543;28;20423;-60
2022/08/06 01:29:10;;;;;;;3.73;1.67;;;;;;;;;;5096712;28;20591;-60
2022/08/06 01:31:43;;;;;;;2.50;1.70;;;;;;;;;;5096061;28;20517;-61
2022/08/06 01:34:12;;;;;;;1.90;1.70;;;;;;;;;;5096348;28;20850;-61
2022/08/06 01:36:41;;;;;;;3.20;1.83;;;;;;;;;;5095430;28;20474;-61
2022/08/06 01:39:10;;;;;;;2.10;1.63;;;;;;;;;;5096013;28;20546;-59
2022/08/06 01:41:45;;;;;;;2.03;1.77;;;;;;;;;;5095995;28;20516;-61
2022/08/06 01:44:16;;;;;;;2.13;1.97;;;;;;;;;;5096141;28;20462;-60
2022/08/06 01:46:46;;;;;;;2.00;1.80;;;;;;;;;;5096005;28;20496;-60
2022/08/06 01:49:15;;;;;;;1.93;1.73;;;;;;;;;;5096026;28;20427;-60
2022/08/06 01:51:43;;;;;;;3.40;1.87;;;;;;;;;;5095848;28;20545;-60
2022/08/06 01:54:10;;;;;;;2.70;1.80;;;;;;;;;;5095795;28;20553;-61
2022/08/06 01:56:39;;;;;;;3.60;2.33;;;;;;;;;;5095871;28;20562;-61
2022/08/06 01:59:07;;;;;;;4.23;2.43;;;;;;;;;;5095788;28;20572;-60
2022/08/06 02:01:38;;;;;;;2.23;2.03;;;;;;;;;;5095955;28;20553;-61
2022/08/06 02:04:06;;;;;;;2.00;1.90;;;;;;;;;;5095976;28;20441;-60
2022/08/06 02:06:35;;;;;;;5.77;2.47;;;;;;;;;;5096159;28;20541;-61
2022/08/06 02:09:04;;;;;;;4.27;2.10;;;;;;;;;;5095671;28;20456;-61
2022/08/06 02:11:32;;;;;;;2.30;2.07;;;;;;;;;;5096131;28;20535;-60
2022/08/06 02:14:00;;;;;;;2.83;2.20;;;;;;;;;;5096596;28;20533;-60
2022/08/06 02:16:29;;;;;;;2.30;1.90;;;;;;;;;;5095877;28;20482;-61
2022/08/06 02:18:58;;;;;;;3.87;2.27;;;;;;;;;;5095719;28;20500;-60
2022/08/06 02:21:27;;;;;;;3.50;3.20;;;;;;;;;;5095456;28;20462;-60
2022/08/06 02:23:55;;;;;;;4.80;2.63;;;;;;;;;;5095476;28;20470;-60
2022/08/06 02:26:25;;;;;;;2.97;2.20;;;;;;;;;;5095400;28;20534;-60
2022/08/06 02:28:54;;;;;;;4.33;3.00;;;;;;;;;;5095175;28;20978;-60
2022/08/06 02:31:21;;;;;;;2.63;2.33;;;;;;;;;;5095202;28;20569;-60
2022/08/06 02:33:49;;;;;;;2.50;2.27;;;;;;;;;;5095163;28;20541;-60
2022/08/06 02:36:20;;;;;;;3.77;2.00;;;;;;;;;;5094724;28;20475;-61
2022/08/06 02:38:50;;;;;;;5.47;2.17;;;;;;;;;;5095240;28;20434;-61
2022/08/06 02:41:19;;;;;;;5.07;2.13;;;;;;;;;;5095101;28;20494;-60
2022/08/06 02:43:50;;;;;;;3.37;1.87;;;;;;;;;;5095011;28;20470;-60
2022/08/06 02:46:21;;;;;;;2.40;2.07;;;;;;;;;;5095145;28;20427;-60
2022/08/06 02:48:51;;;;;;;1.97;1.60;;;;;;;;;;5094059;28;20899;-60
2022/08/06 02:51:22;;;;;;;2.30;2.10;;;;;;;;;;5094464;28;20553;-60
2022/08/06 02:54:01;;;;;;;3.23;1.97;;;;;;;;;;5094685;28;20443;-61
2022/08/06 02:56:29;;;;;;;6.90;2.23;;;;;;;;;;5094752;28;20498;-60
2022/08/06 02:58:59;;;;;;;2.40;2.17;;;;;;;;;;5094439;28;20482;-61
2022/08/06 03:01:29;;;;;;;4.90;2.10;;;;;;;;;;5094199;28;20467;-60
2022/08/06 03:03:59;;;;;;;4.03;2.17;;;;;;;;;;5094231;28;20972;-60
2022/08/06 03:06:30;;;;;;;2.57;2.00;;;;;;;;;;5094389;28;20544;-60
2022/08/06 03:08:58;;;;;;;3.70;2.70;;;;;;;;;;5094294;28;20435;-61
2022/08/06 03:11:26;;;;;;;6.20;2.20;;;;;;;;;;5094539;28;20473;-61
2022/08/06 03:13:54;;;;;;;8.47;2.20;;;;;;;;;;5094733;28;20451;-60
2022/08/06 03:16:21;;;;;;;4.30;1.97;;;;;;;;;;5093985;28;20488;-60
2022/08/06 03:18:50;;;;;;;2.60;2.10;;;;;;;;;;5094171;28;20536;-60
2022/08/06 03:21:18;;;;;;;7.53;2.20;;;;;;;;;;5094161;28;20455;-61
2022/08/06 03:23:47;;;;;;;3.00;2.20;;;;;;;;;;5094071;28;20470;-60
2022/08/06 03:26:15;;;;;;;2.50;2.30;;;;;;;;;;5094297;28;20532;-60
2022/08/06 03:28:43;;;;;;;3.43;2.10;;;;;;;;;;5094605;28;20534;-60
2022/08/06 03:31:11;;;;;;;4.60;2.30;;;;;;;;;;5094054;28;20481;-60
2022/08/06 03:33:38;;;;;;;4.00;2.10;;;;;;;;;;5094419;28;20525;-61
2022/08/06 03:36:07;;;;;;;2.60;2.17;;;;;;;;;;5093904;28;20479;-60
2022/08/06 03:38:38;;;;;;;2.73;2.17;;;;;;;;;;5093746;28;20533;-60
2022/08/06 03:41:08;;;;;;;7.93;2.40;;;;;;;;;;5093574;28;20553;-60
2022/08/06 03:43:36;;;;;;;4.90;2.30;;;;;;;;;;5093819;28;20442;-60
2022/08/06 03:46:05;;;;;;;5.50;2.30;;;;;;;;;;5093929;28;20438;-60
2022/08/06 03:48:34;;;;;;;3.20;2.60;;;;;;;;;;5093691;28;20525;-59
2022/08/06 03:51:03;;;;;;;3.83;2.70;;;;;;;;;;5094012;28;20498;-61
2022/08/06 03:53:33;;;;;;;2.43;2.13;;;;;;;;;;5101650;28;20505;-61
2022/08/06 03:56:01;;;;;;;3.63;2.23;;;;;;;;;;5104502;28;20524;-61
2022/08/06 03:58:30;;;;;;;7.10;2.70;;;;;;;;;;5103604;28;20636;-60
2022/08/06 04:01:03;;;;;;;2.60;2.40;;;;;;;;;;5102598;28;20466;-60
2022/08/06 04:03:30;;;;;;;5.17;2.53;;;;;;;;;;5094652;28;20914;-60
2022/08/06 04:05:58;;;;;;;6.17;2.57;;;;;;;;;;5094104;28;20478;-60
2022/08/06 04:10:05;;;;;;;2.87;2.50;;;;;;;;;;5091361;27;20554;-62
2022/08/06 04:12:33;;;;;;;3.27;2.87;;;;;;;;;;5091380;28;20529;-61
2022/08/06 04:15:00;;;;;;;3.07;2.87;;;;;;;;;;5091062;28;20453;-61
2022/08/06 04:17:28;;;;;;;7.37;2.53;;;;;;;;;;5091307;28;20529;-61
2022/08/06 04:19:56;;;;;;;3.37;2.60;;;;;;;;;;5091001;28;20443;-60
2022/08/06 04:22:24;;;;;;;2.70;2.50;;;;;;;;;;5091289;28;20474;-60
2022/08/06 04:24:51;;;;;;;2.90;2.60;;;;;;;;;;5090868;28;20511;-60
2022/08/06 04:27:21;;;;;;;2.90;2.60;;;;;;;;;;5090555;28;20533;-60
2022/08/06 04:29:49;;;;;;;3.43;2.70;;;12.00;99.90;;;;;;5090562;28;20528;-61
2022/08/06 04:32:19;;;;;;;3.40;2.43;;;13.00;99.90;;;;;;5090363;28;20492;-61
2022/08/06 04:34:47;;;;;;;3.50;2.20;;;13.40;99.90;;;;;;5090378;28;21022;-61
2022/08/06 04:37:15;;;;;;;3.77;2.10;;;13.70;99.90;;;;;;5090229;28;20481;-61
2022/08/06 04:39:43;;;;;;;2.97;2.23;;;14.10;99.90;;;;;;5090142;28;20986;-61
2022/08/06 04:42:10;;;;;;;2.97;2.10;;;14.40;99.90;;;;;;5090550;28;20505;-61
2022/08/06 04:44:39;;;;;;;2.10;1.90;;;14.50;99.90;;;;;;5090738;28;20450;-61
2022/08/06 04:47:07;;;;;;;1.83;1.73;;;14.60;99.80;;;;;;5090117;28;20538;-59
2022/08/06 04:49:34;;;;;;;1.87;1.67;;;14.70;99.10;;;;;;5089930;28;20601;-61
2022/08/06 04:52:02;;;;;;;3.00;2.03;;;14.80;98.80;;;;;;5089834;28;20494;-59
2022/08/06 04:54:29;;;;;;;2.23;1.80;;;15.00;98.30;;;;;;5089572;28;20449;-59
2022/08/06 04:56:56;;;;;;;2.80;1.77;;;15.20;97.70;;;;;;5089654;28;20446;-60
2022/08/06 04:59:23;;;;;;;2.10;1.90;;;15.30;96.90;;;;;;5089909;28;20442;-61
2022/08/06 05:01:52;;;;;;;2.73;1.70;;;15.40;96.30;;;;;;5089494;28;20498;-60
2022/08/06 05:04:19;;;;;;;1.80;1.70;;;15.50;95.70;;;;;;5089949;28;20489;-60
2022/08/06 05:06:50;;;;;;;3.63;1.87;;;15.60;95.30;;;;;;5089947;28;20470;-60
2022/08/06 05:09:21;;;;;;;2.50;1.80;;;15.70;94.90;;;;;;5089394;28;20573;-60
2022/08/06 05:11:53;;;;;;;3.73;1.90;;;15.70;94.40;;;;;;5089481;28;20561;-60
2022/08/06 05:14:25;;;;;;;2.20;1.93;;;15.80;94.00;;;;;;5089650;28;20500;-60
2022/08/06 05:16:57;;;;;;;2.47;2.00;;;15.90;93.50;;;;;;5089528;28;20474;-60
2022/08/06 05:19:29;;;;;;;2.00;1.90;;;15.90;93.00;;;;;;5087512;28;20419;-60
2022/08/06 05:21:59;;;;;;;2.50;2.07;;;15.90;92.70;;;;;;5076145;28;20855;-60
2022/08/06 05:24:28;;;;;;;2.97;1.93;;;15.90;92.40;;;;;;5076109;28;20449;-60
2022/08/06 05:26:56;;;;;;;4.17;2.23;;;15.90;91.90;;;;;;5076508;28;20512;-60
2022/08/06 05:29:23;;;;;;;2.17;1.70;;;15.90;91.80;;;;;;5075855;28;20501;-60
2022/08/06 05:31:50;;;;;;;2.57;1.80;;;15.90;91.70;;;;;;5076789;22;20519;-56
2022/08/06 05:34:19;;;;;;;2.33;2.13;;;15.90;91.70;;;;;;5037513;28;20468;-56
2022/08/06 05:36:46;;;;;;;2.60;1.97;;;15.90;91.50;;;;;;5036743;28;20998;-55
2022/08/06 05:39:14;;;;;;;3.23;1.80;;;15.90;91.40;;;;;;5037049;28;20960;-55
2022/08/06 05:41:42;;;;;;;4.93;2.30;;;15.90;91.20;;;;;;5036984;28;20990;-55
2022/08/06 05:44:10;;;;;;;2.70;2.17;;;15.90;91.30;;;;;;5036819;28;20449;-56
2022/08/06 05:46:42;;;;;;;2.30;1.70;;;15.90;91.30;;;;;;5036462;28;20541;-55
2022/08/06 05:49:11;;;;;;;2.87;2.13;;;15.90;91.30;;;;;;5036344;28;20465;-56
2022/08/06 05:51:46;;;;;;;5.00;2.03;;;15.90;91.20;;;;;;5036431;28;20461;-56
2022/08/06 05:54:22;;;;;;;4.57;2.37;;;15.90;91.30;;;;;;5036348;28;20433;-55
2022/08/06 05:56:55;;;;;;;2.17;1.97;;;15.80;91.50;;;;;;5036217;28;20487;-56
2022/08/06 05:59:27;;;;;;;4.10;2.10;;;15.70;91.80;;;;;;5036937;28;20793;-55
2022/08/06 06:01:55;;;;;;;3.00;2.07;;;15.70;92.00;;;;;;5035728;28;20881;-54
2022/08/06 06:04:24;;;;;;;3.77;2.33;;;15.70;92.10;;;;;;5036405;28;20468;-56
2022/08/06 06:06:53;;;;;;;3.10;2.67;;;15.70;92.10;;;;;;5035905;28;20476;-55
2022/08/06 06:09:20;;;;;;;2.83;2.23;;;15.60;92.00;;;;;;5035648;28;21064;-54
2022/08/06 06:11:49;;;;;;;3.50;2.40;;;15.60;92.10;;;;;;5035598;28;20464;-56
2022/08/06 06:14:36;;;;;;;5.13;2.37;;;15.50;92.10;;;;;;5035777;28;20495;-54
2022/08/06 06:17:17;;;;;;;3.50;2.57;;;15.40;92.30;;;;;;5036379;28;20453;-55
2022/08/06 06:19:49;;;;;;;2.47;2.27;;;15.40;92.40;;;;;;5035426;28;20929;-55
2022/08/06 06:22:22;;;;;;;5.40;2.37;;;15.40;92.30;;;;;;5034791;28;20552;-54
2022/08/06 06:24:56;;;;;;;2.37;2.00;;;15.50;92.20;;;;;;5034666;28;20816;-54
2022/08/06 06:27:30;;;;;;;5.80;2.50;;;15.50;92.10;;;;;;5034405;28;20897;-55
2022/08/06 06:30:02;;;;;;;3.27;2.40;;;15.60;92.00;;;;;;5034754;28;20564;-55
2022/08/06 06:32:41;;;;;;;3.23;2.40;;;15.60;91.80;;;;;;5033525;28;20480;-55
2022/08/06 06:35:19;;;;;;;3.60;2.07;;;15.70;91.80;;;;;;5034502;28;20524;-54
2022/08/06 06:37:54;;;;;;;3.30;2.23;;;15.70;91.70;;;;;;5034350;28;20960;-56
2022/08/06 06:40:34;;;;;;;7.60;2.00;;;15.80;91.80;;;;;;5034890;28;20456;-55
2022/08/06 06:43:05;;;;;;;3.70;2.23;;;15.80;91.70;;;;;;5034727;28;20500;-56
2022/08/06 06:45:42;;;;;;;4.53;1.90;;;15.90;91.60;;;;;;5034666;28;20533;-56
2022/08/06 06:48:14;;;;;;;2.93;2.00;;;16.00;91.50;;;;;;5034824;28;20432;-55
2022/08/06 06:50:47;;;;;;;2.80;1.83;;;16.00;91.50;;;;;;5034927;28;20483;-56
2022/08/06 06:53:17;;;;;;;4.10;2.40;;;16.10;91.60;;;;;;5034809;28;20436;-55
2022/08/06 06:55:47;;;;;;;3.77;2.47;;;16.10;91.50;;;;;;5034853;28;20536;-55
2022/08/06 06:58:20;;;;;;;3.50;2.30;;;16.20;91.30;;;;;;5035062;28;20885;-56
2022/08/06 07:00:49;;;;;;;3.80;1.47;;;16.30;91.20;;;;;;5034908;28;20467;-55
2022/08/06 07:03:20;;;;;;;2.40;1.67;;;16.30;91.10;;;;;;5035293;28;20491;-55
2022/08/06 07:05:50;;;;;;;2.60;2.03;;;16.40;90.80;;;;;;5034624;28;20482;-55
2022/08/06 07:08:23;;;;;;;3.67;1.80;;;16.50;90.80;;;;;;5034111;28;20481;-55
2022/08/06 07:10:51;;;;;;;2.50;1.60;;;16.60;90.50;;;;;;5033690;28;20492;-55
2022/08/06 07:13:20;;;;;;;2.33;1.40;;;16.70;90.40;;;;;;5034102;28;20548;-55
2022/08/06 07:15:49;;;;;;;2.23;1.40;;;16.80;90.30;;;;;;5033565;28;20473;-55
2022/08/06 07:18:18;;;;;;;1.67;1.50;;;16.90;90.00;;;;;;5038855;28;20472;-55
2022/08/06 07:20:45;;;;;;;2.97;1.43;;;17.00;89.50;;;;;;5036409;28;20501;-54
2022/08/06 07:23:16;;;;;;;3.93;1.60;;;17.10;89.20;;;;;;5035232;28;20447;-55
2022/08/06 07:25:47;;;;;;;3.90;1.67;;;17.20;88.20;;;;;;5033439;28;20947;-55
2022/08/06 07:28:16;;;;;;;1.60;1.10;;;17.20;88.10;;;;;;5033409;28;20433;-57
2022/08/06 07:30:43;;;;;;;2.73;0.83;;;17.30;87.00;;;;;;5033192;28;20492;-55
2022/08/06 07:33:12;;;;;;;1.00;0.80;;;17.30;85.70;;;;;;5033623;28;20430;-56
2022/08/06 07:35:42;;;;;;;1.40;0.83;;;17.40;84.30;;;;;;5033500;28;20481;-56
2022/08/06 07:38:12;;;;;;;1.63;0.97;;;17.50;83.20;;;;;;5033675;28;20487;-57
2022/08/06 07:40:43;;;;;;;1.90;1.20;;;17.50;82.10;;;;;;5033290;28;20516;-56
2022/08/06 07:43:17;;;;;;;2.20;1.07;;;17.60;81.00;;;;;;5032813;28;20461;-56
2022/08/06 07:45:45;;;;;;;3.40;1.27;;;17.70;80.40;;;;;;5033156;28;20512;-56
2022/08/06 07:48:15;;;;;;;1.50;0.50;;;17.80;79.50;;;;;;5033542;28;20536;-56
2022/08/06 07:50:45;;;;;;;3.07;0.87;;;17.90;78.50;;;;;;5033537;28;20901;-55
2022/08/06 07:53:14;;;;;;;2.00;1.00;;;18.00;77.40;;;;;;5033064;28;20429;-55
2022/08/06 07:55:42;;;;;;;1.33;0.80;;;18.10;76.80;;;;;;5032888;28;20528;-55
2022/08/06 07:58:12;;;;;;;2.17;1.00;;;18.30;75.90;;;;;;5032903;28;20452;-55
2022/08/06 08:00:40;;;;;;;2.03;0.63;;;18.40;74.70;;;;;;5032966;28;20468;-56
2022/08/06 08:08:41;;;;;;;2.77;0.90;;;18.00;71.70;;;;;;5032844;28;20408;-56
2022/08/06 08:11:09;;;;;;;3.27;1.73;;;18.10;71.80;;;;;;5032874;28;20571;-57
2022/08/06 08:13:38;;;;;;;0.80;0.73;;;18.20;70.70;;;;;;5032730;28;20444;-55
2022/08/06 08:16:07;;;;;;;3.20;1.03;;;18.30;70.10;;;;;;5032734;28;20449;-55
2022/08/06 08:18:35;;;;;;;2.70;0.70;;;18.50;69.80;;;;;;5032915;28;20480;-55
2022/08/06 08:21:03;;;;;;;0.70;0.50;;;18.70;69.10;;;;;;5032608;28;20563;-56
2022/08/06 08:23:32;;;;;;;1.30;0.60;;;18.80;66.50;;;;;;5032783;28;20460;-56
2022/08/06 08:26:01;;;;;;;2.50;0.80;;;18.70;65.70;;;;;;5032883;28;20451;-56
2022/08/06 08:28:30;;;;;;;1.50;1.00;;;18.70;65.50;;;;;;5032400;28;20453;-55
2022/08/06 08:31:01;;;;;;;5.03;0.80;;;18.70;65.80;;;;;;5032316;28;20497;-57
2022/08/06 08:33:29;;;;;;;1.20;0.70;;;18.80;65.40;;;;;;5032494;28;20433;-55
2022/08/06 08:35:56;;;;;;;3.40;0.80;;;19.00;64.70;;;;;;5032555;28;20968;-55
2022/08/06 08:38:24;;;;;;;1.30;0.80;;;19.40;63.80;;;;;;5032598;28;20932;-55
2022/08/06 08:40:54;;;;;;;3.60;0.90;;;19.60;62.30;;;;;;5032695;28;20975;-55
2022/08/06 08:43:26;;;;;;;1.20;0.60;;;19.50;61.20;;;;;;5032559;28;20465;-55
2022/08/06 08:45:55;;;;;;;1.27;0.70;;;19.40;61.30;;;;;;5032652;28;20524;-55
2022/08/06 08:48:29;;;;;;;2.70;0.80;;;19.30;61.20;;;;;;5032622;28;20582;-56
2022/08/06 08:50:59;;;;;;;1.60;0.60;;;19.50;61.10;;;;;;5032551;28;20499;-55
2022/08/06 08:53:33;;;;;;;2.83;0.90;;;19.60;60.30;;;;;;5032341;28;20548;-55
2022/08/06 08:56:02;;;;;;;3.43;0.80;;;19.80;59.10;;;;;;5034934;28;20429;-55
2022/08/06 08:58:31;;;;;;;1.97;0.80;;;20.00;58.10;;;;;;5036021;28;20552;-56
2022/08/06 09:00:59;;;;;;;1.20;0.93;;;20.20;57.40;;;;;;5036112;28;20823;-56
2022/08/06 09:03:28;;;;;;;3.63;1.00;;;20.20;57.30;;;;;;5036306;28;20456;-56
2022/08/06 09:05:56;;;;;;;2.30;0.80;;;20.20;57.20;;;;;;5035883;28;20548;-55
2022/08/06 09:08:24;;;;;;;4.10;0.90;;;20.30;56.80;;;;;;5035963;28;20937;-56
2022/08/06 09:10:51;;;;;;;3.00;0.80;;;20.40;56.20;;;;;;5036223;28;20851;-55
2022/08/06 09:13:18;;;;;;;4.47;0.63;;;20.50;56.10;;;;;;5036195;28;20527;-55
2022/08/06 09:15:46;;;;;;;1.80;0.70;;;20.80;55.60;;;;;;5035749;28;20476;-55
2022/08/06 09:18:13;;;;;;;3.67;0.90;;;21.10;54.50;;;;;;5035891;28;20449;-55
2022/08/06 09:20:42;;;;;;;2.27;0.70;;;21.30;53.40;;;;;;5035875;28;20520;-56
2022/08/06 09:23:09;;;;;;;1.67;0.60;;;21.30;52.90;;;;;;5035840;28;20519;-55
2022/08/06 09:25:38;;;;;;;3.37;0.73;;;21.30;52.80;;;;;;5035429;28;20501;-55
2022/08/06 09:28:10;;;;;;;1.00;0.60;;;21.30;52.60;;;;;;5035801;28;20533;-55
2022/08/06 09:30:38;;;;;;;2.13;0.87;;;21.20;52.20;;;;;;5035200;28;21025;-57
2022/08/06 09:33:12;;;;;;;2.10;0.70;;;21.30;52.10;;;;;;5036708;28;20858;-54
2022/08/06 09:35:39;;;;;;;2.90;0.70;;;21.50;51.80;;;;;;5036920;28;20454;-55
2022/08/06 09:38:09;;;;;;;1.80;0.77;;;21.70;51.10;;;;;;5035880;28;20889;-53
2022/08/06 09:40:37;;;;;;;2.10;1.23;;;21.80;49.90;;;;;;5035863;28;20487;-56
2022/08/06 09:43:04;;;;;;;1.93;0.80;;;21.60;49.80;;;;;;5037695;28;20835;-54
2022/08/06 09:45:31;;;;;;;1.57;0.60;;;21.30;50.00;;;;;;5035474;28;20435;-55
2022/08/06 09:48:03;;;;;;;1.30;0.70;;;21.00;50.50;;;;;;5035283;28;20904;-55
2022/08/06 09:50:40;;;;;;;4.43;0.90;;;20.70;51.00;;;;;;5035188;28;20539;-54
2022/08/06 09:53:08;;;;;;;1.03;0.60;;;20.40;51.60;;;;;;5035214;28;20487;-54
2022/08/06 09:55:36;;;;;;;1.43;0.87;;;20.20;51.60;;;;;;5035048;28;21072;-55
2022/08/06 09:58:04;;;;;;;1.83;0.70;;;19.90;51.60;;;;;;5034983;28;20480;-55
2022/08/06 10:00:33;;;;;;;0.77;0.50;;;19.80;52.00;;;;;;5034748;28;20537;-56
2022/08/06 10:03:02;;;;;;;0.87;0.60;;;20.00;51.90;;;;;;5034619;28;21016;-54
2022/08/06 10:05:30;;;;;;;1.23;0.70;;;20.20;51.10;;;;;;5034676;28;20536;-56
2022/08/06 10:08:09;;;;;;;0.97;0.60;;;20.50;50.10;;;;;;5034868;28;20520;-54
2022/08/06 10:10:42;;;;;;;1.33;0.93;;;20.70;49.80;;;;;;5034719;28;20464;-55
2022/08/06 10:13:18;;;;;;;1.10;0.63;;;21.10;49.50;;;;;;5034673;28;20532;-56
2022/08/06 10:15:45;;;;;;;0.80;0.50;;;21.50;48.90;;;;;;5034830;28;20526;-54
2022/08/06 10:18:30;;;;;;;3.20;0.60;;;21.70;48.70;;;;;;5034637;28;20877;-54
2022/08/06 10:21:02;;;;;;;1.80;0.50;;;21.50;48.40;;;;;;5034361;28;20509;-54
2022/08/06 10:23:33;;;;;;;3.40;0.80;;;21.30;48.70;;;;;;5035006;28;20453;-54
2022/08/06 10:26:01;;;;;;;1.10;0.50;;;21.30;48.90;;;;;;5034743;28;20496;-55
2022/08/06 10:28:30;;;;;;;2.73;0.77;;;21.30;47.50;;;;;;5034604;28;20455;-54
2022/08/06 10:30:59;;;;;;;2.50;0.90;;;21.30;47.00;;;;;;5034618;28;20581;-54
2022/08/06 10:33:32;;;;;;;1.00;0.57;;;21.40;46.60;;;;;;5034694;28;20458;-55
2022/08/06 10:36:05;;;;;;;0.80;0.57;;;21.60;46.10;;;;;;5034591;28;20526;-56
2022/08/06 10:38:36;;;;;;;1.93;0.83;;;21.90;45.50;;;;;;5034327;28;20428;-55
2022/08/06 10:41:08;;;;;;;1.53;0.40;;;22.10;44.80;;;;;;5033973;28;20479;-55
2022/08/06 10:43:37;;;;;;;4.27;0.60;;;22.30;44.50;;;;;;5034024;28;20441;-55
2022/08/06 10:46:06;;;;;;;1.80;0.70;;;22.60;44.10;;;;;;5034333;28;20463;-54
2022/08/06 10:48:35;;;;;;;1.83;0.80;;;22.80;43.90;;;;;;5034372;28;20521;-54
2022/08/06 10:51:03;;;;;;;1.47;0.70;;;23.00;43.30;;;;;;5034218;28;20916;-54
2022/08/06 10:53:33;;;;;;;0.60;0.50;;;22.90;42.70;;;;;;5033775;28;20444;-54
2022/08/06 10:56:06;;;;;;;1.13;0.70;;;22.70;42.40;;;;;;5034143;28;20490;-55
2022/08/06 10:58:35;;;;;;;1.87;0.60;;;22.60;42.40;;;;;;5034217;28;20540;-56
2022/08/06 11:01:06;;;;;;;3.00;0.60;;;22.90;42.30;;;;;;5033663;28;20996;-55
2022/08/06 11:03:47;;;;;;;1.27;0.80;;;23.10;42.30;;;;;;5034026;28;20513;-55
2022/08/06 11:06:37;;;;;;;0.97;0.60;;;23.30;42.00;;;;;;5033757;28;20865;-55
2022/08/06 11:09:20;;;;;;;2.60;0.60;;;23.30;41.90;;;;;;5034018;28;20429;-55
2022/08/06 11:12:04;;;;;;;3.10;0.80;;;23.10;42.10;;;;;;5033200;28;20495;-54
2022/08/06 11:14:35;;;;;;;1.73;0.90;;;22.70;42.50;;;;;;5034073;28;20432;-54
2022/08/06 11:17:02;;;;;;;2.60;1.00;;;22.30;43.30;;;;;;5033208;28;20963;-54
2022/08/06 11:19:40;;;;;;;1.30;0.70;;;22.00;44.20;;;;;;5033424;28;20493;-56
2022/08/06 11:22:08;;;;;;;0.80;0.70;;;21.80;44.80;;;;;;5033571;28;20817;-56
2022/08/06 11:24:51;;;;;;;5.50;0.73;;;21.90;44.90;;;;;;5033424;28;20903;-56
2022/08/06 11:27:50;;;;;;;1.30;0.60;;;22.10;44.60;;;;;;5034527;28;20436;-56
2022/08/06 11:30:18;;;;;;;0.70;0.50;;;22.50;44.10;;;;;;5033172;28;20480;-55
2022/08/06 11:32:46;;;;;;;1.20;0.60;;;22.90;42.70;;;;;;5064558;22;20488;-59
2022/08/06 11:35:45;;;;;;;1.90;0.60;;;23.00;41.20;;;;;;5053260;28;20448;-60
2022/08/06 11:38:14;;;;;;;0.80;0.60;;;23.10;40.30;;;;;;5041701;28;20475;-61
2022/08/06 11:40:58;;;;;;;1.20;0.63;;;23.40;40.10;;;;;;5053499;28;20439;-59
2022/08/06 11:44:04;;;;;;;1.57;0.70;;;23.60;39.70;;;;;;5033139;28;20429;-61
2022/08/06 11:46:33;;;;;;;1.70;0.60;;;23.40;39.50;;;;;;5024665;28;20460;-60
2022/08/06 11:49:15;;;;;;;0.90;0.60;;;23.20;40.00;;;;;;5033968;28;20849;-59
2022/08/06 11:51:44;;;;;;;1.47;0.97;;;22.80;40.30;;;;;;5033079;28;20563;-60
2022/08/06 11:54:13;;;;;;;1.30;0.80;;;22.60;40.80;;;;;;5033105;28;20539;-60
2022/08/06 11:57:21;;;;;;;1.13;0.90;;;22.30;41.80;;;;;;5032654;28;20547;-60
2022/08/06 12:00:08;;;;;;;1.33;0.70;;;22.10;41.70;;;;;;5024466;28;20942;-60
2022/08/06 12:02:57;;;;;;;1.63;1.13;;;21.90;41.80;;;;;;5032807;28;20502;-60
2022/08/06 12:05:41;;;;;;;2.80;0.83;;;22.10;41.60;;;;;;5029281;28;20567;-60
2022/08/06 12:08:19;;;;;;;0.60;0.47;;;23.40;40.20;;;;;;5033400;28;20516;-61
2022/08/06 12:11:23;;;;;;;1.77;0.93;;;24.60;38.50;;;;;;5033907;28;20484;-60
2022/08/06 12:13:53;;;;;;;3.40;1.10;;;25.90;36.20;;;;;;5033143;28;20450;-58
2022/08/06 12:16:38;;;;;;;2.13;0.73;;;26.60;34.60;;;;;;5034306;28;20449;-59
2022/08/06 12:19:13;;;;;;;1.33;0.70;;;27.10;33.60;;;;;;5032925;28;20924;-60
2022/08/06 12:21:42;;;;;;;1.53;0.60;;;27.60;33.00;;;;;;5033945;28;20458;-60
2022/08/06 12:24:11;;;;;;;1.20;0.77;;;27.50;32.50;;;;;;5034620;28;20449;-60
2022/08/06 12:26:38;;;;;;;1.17;0.60;;;26.80;33.10;;;;;;5034839;28;20993;-59
2022/08/06 12:29:08;;;;;;;1.53;0.53;;;26.20;34.00;;;;;;5033594;28;20626;-60
2022/08/06 12:31:38;;;;;;;1.20;0.57;;;26.10;34.10;;;;;;5036211;28;20507;-60
2022/08/06 12:34:06;;;;;;;1.77;0.60;;;25.80;34.20;;;;;;5037316;28;20445;-60
2022/08/06 12:36:35;;;;;;;0.80;0.50;;;25.90;34.10;;;;;;5036895;28;20477;-60
2022/08/06 12:39:08;;;;;;;0.70;0.50;;;25.80;33.80;;;;;;5036671;28;20448;-60
2022/08/06 12:41:39;;;;;;;1.00;0.80;;;25.40;34.30;;;;;;5036655;28;20477;-61
2022/08/06 12:44:07;;;;;;;2.00;0.70;;;24.70;34.90;;;;;;5036420;28;20430;-60
2022/08/06 12:46:35;;;;;;;1.93;0.97;;;24.10;35.50;;;;;;5036376;28;20929;-59
2022/08/06 12:49:02;;;;;;;1.30;0.60;;;23.70;36.00;;;;;;5036291;28;20548;-61
2022/08/06 12:51:30;;;;;;;1.13;0.57;;;23.50;36.30;;;;;;5036336;28;20567;-60
2022/08/06 12:54:00;;;;;;;1.80;1.50;;;23.20;36.30;;;;;;5036189;28;20453;-60
2022/08/06 12:56:29;;;;;;;0.80;0.53;;;23.00;36.20;;;;;;5036227;28;20451;-59
2022/08/06 12:58:57;;;;;;;0.90;0.60;;;22.80;36.40;;;;;;5036224;28;20544;-59
2022/08/06 13:01:29;;;;;;;1.70;0.80;;;22.60;36.70;;;;;;5036537;28;20471;-60
2022/08/06 13:04:00;;;;;;;1.77;0.90;;;22.50;36.90;;;;;;5036998;28;20429;-60
2022/08/06 13:06:30;;;;;;;2.83;1.00;;;22.30;36.90;;;;;;5037105;28;20469;-59
2022/08/06 13:08:58;;;;;;;1.63;1.10;;;22.20;37.00;;;;;;5037268;28;20487;-60
2022/08/06 13:11:33;;;;;;;0.80;0.50;;;22.20;37.20;;;;;;5035679;28;20576;-61
2022/08/06 13:14:09;;;;;;;1.00;0.70;;;22.20;37.20;;;;;;5035918;28;20939;-59
2022/08/06 13:16:47;;;;;;;1.20;0.93;;;22.10;37.30;;;;;;5036661;28;20427;-60
2022/08/06 13:19:16;;;;;;;1.80;1.10;;;22.10;37.50;;;;;;5036520;28;20432;-60
2022/08/06 13:21:46;;;;;;;0.90;0.53;;;22.10;37.50;;;;;;5035710;28;20998;-59
2022/08/06 13:24:26;;;;;;;0.83;0.80;;;22.40;37.70;;;;;;5035661;28;20518;-59
2022/08/06 13:26:54;;;;;;;2.50;0.67;;;22.70;37.00;;;;;;5035449;28;21002;-59
2022/08/06 13:29:24;;;;;;;0.83;0.50;;;22.80;36.30;;;;;;5035094;28;21008;-60
2022/08/06 13:32:03;;;;;;;1.00;0.60;;;22.90;36.30;;;;;;5035136;28;20488;-60
2022/08/06 13:34:30;;;;;;;1.30;0.60;;;23.20;36.20;;;;;;5035254;28;20435;-60
2022/08/06 13:37:02;;;;;;;1.00;0.63;;;23.40;36.00;;;;;;5035374;28;20586;-60
2022/08/06 13:39:30;;;;;;;1.30;1.00;;;23.60;35.80;;;;;;5035531;28;20436;-60
2022/08/06 13:42:06;;;;;;;0.97;0.57;;;23.80;35.60;;;;;;5034672;28;20867;-61
2022/08/06 13:44:37;;;;;;;4.20;1.43;;;24.10;35.30;;;;;;5035637;28;20450;-61
2022/08/06 13:47:06;;;;;;;1.10;0.50;;;24.30;35.00;;;;;;5035453;28;20616;-60
2022/08/06 13:49:34;;;;;;;2.20;0.77;;;24.30;34.80;;;;;;5035225;28;20482;-60